Time;durP1;ratioP1;P1;durP2;ratioP2;P2;SDS_P1;SDS_P2;PMS_P1;PMS_P2;Temp;Humidity;BMP_temperature;BMP_pressure;BME280_temperature;BME280_humidity;BME280_pressure;Samples;Min_cycle;Max_cycle;Signal;HPM_P1;HPM_P2
2023/08/04 00:00:57;;;;;;;;;;;15.50;99.90;;;;;;5069232;28;19936;-89
2023/08/04 00:03:27;;;;;;;;;;;15.50;99.90;;;;;;5072691;28;19972;-88
2023/08/04 00:06:06;;;;;;;;;;;15.50;99.90;;;;;;5067191;28;19924;-88
2023/08/04 00:08:35;;;;;;;;;;;15.40;99.90;;;;;;5068068;28;19978;-89
2023/08/04 00:11:06;;;;;;;;;;;15.40;99.90;;;;;;5068658;28;19916;-87
2023/08/04 00:13:35;;;;;;;;;;;15.40;99.90;;;;;;5064353;28;20024;-89
2023/08/04 00:16:06;;;;;;;;;;;15.30;99.90;;;;;;5078230;28;19939;-88
2023/08/04 00:18:32;;;;;;;;;;;15.30;99.90;;;;;;5061492;28;19952;-88
2023/08/04 00:20:59;;;;;;;;;;;15.30;99.90;;;;;;5066528;28;19952;-89
2023/08/04 00:23:28;;;;;;;;;;;15.20;99.90;;;;;;5060958;28;19959;-89
2023/08/04 00:25:57;;;;;;;;;;;15.20;99.90;;;;;;5062631;28;19996;-89
2023/08/04 00:28:27;;;;;;;;;;;15.20;99.90;;;;;;5063073;28;19966;-88
2023/08/04 00:30:52;;;;;;;;;;;15.20;99.90;;;;;;5062840;28;19909;-88
2023/08/04 00:33:18;;;;;;;;;;;15.30;99.90;;;;;;5069073;28;19923;-87
2023/08/04 00:35:47;;;;;;;;;;;15.30;99.90;;;;;;5062295;28;19932;-87
2023/08/04 00:38:13;;;;;;;;;;;15.30;99.90;;;;;;5063051;28;19924;-88
2023/08/04 00:40:40;;;;;;;;;;;15.40;99.90;;;;;;5064174;28;19908;-89
2023/08/04 00:43:12;;;;;;;;;;;15.30;99.90;;;;;;5064767;28;19912;-88
2023/08/04 00:45:39;;;;;;;;;;;15.30;99.90;;;;;;5064686;28;19909;-89
2023/08/04 00:48:06;;;;;;;;;;;15.30;99.90;;;;;;5064347;28;19959;-88
2023/08/04 00:50:32;;;;;;;;;;;15.30;99.90;;;;;;5046346;28;19931;-89
2023/08/04 00:52:59;;;;;;;;;;;15.20;99.90;;;;;;5065639;28;19916;-88
2023/08/04 00:55:26;;;;;;;;;;;15.20;99.90;;;;;;5065190;28;19984;-88
2023/08/04 00:57:59;;;;;;;;;;;15.20;99.90;;;;;;5063113;28;19923;-89
2023/08/04 01:00:31;;;;;;;;;;;15.20;99.90;;;;;;5075546;28;20063;-89
2023/08/04 01:02:56;;;;;;;;;;;15.10;99.90;;;;;;5062650;28;19923;-88
2023/08/04 01:05:35;;;;;;;;;;;15.10;99.90;;;;;;5064430;28;19917;-88
2023/08/04 01:08:15;;;;;;;;;;;15.10;99.90;;;;;;5064223;28;19912;-88
2023/08/04 01:10:46;;;;;;;;;;;15.00;99.90;;;;;;5065125;28;19924;-88
2023/08/04 01:13:13;;;;;;;;;;;15.00;99.90;;;;;;5082258;28;19991;-88
2023/08/04 01:15:39;;;;;;;;;;;14.90;99.90;;;;;;5065755;28;19965;-87
2023/08/04 01:18:06;;;;;;;;;;;14.90;99.90;;;;;;5066659;28;20012;-89
2023/08/04 01:20:34;;;;;;;;;;;14.90;99.90;;;;;;5063817;28;20359;-88
2023/08/04 01:23:00;;;;;;;;;;;14.90;99.90;;;;;;5063966;28;19919;-88
2023/08/04 01:25:35;;;;;;;;;;;14.80;99.90;;;;;;5079947;28;20409;-88
2023/08/04 01:28:07;;;;;;;;;;;14.80;99.90;;;;;;5063633;28;19915;-88
2023/08/04 01:30:36;;;;;;;;;;;14.90;99.90;;;;;;5065761;28;19920;-88
2023/08/04 01:33:02;;;;;;;;;;;14.90;99.90;;;;;;5066652;28;19927;-87
2023/08/04 01:35:30;;;;;;;;;;;14.90;99.90;;;;;;5061031;28;19920;-88
2023/08/04 01:38:01;;;;;;;;;;;14.90;99.90;;;;;;5065771;28;19925;-87
2023/08/04 01:40:34;;;;;;;;;;;15.00;99.90;;;;;;5059226;28;20362;-89
2023/08/04 01:43:03;;;;;;;;;;;15.00;99.90;;;;;;5057558;28;20339;-87
2023/08/04 01:45:29;;;;;;;;;;;15.00;99.90;;;;;;5072291;28;19938;-88
2023/08/04 01:47:55;;;;;;;;;;;15.00;99.90;;;;;;5054426;28;19962;-87
2023/08/04 01:50:25;;;;;;;;;;;15.00;99.90;;;;;;5062212;28;19924;-88
2023/08/04 01:52:58;;;;;;;;;;;15.00;99.90;;;;;;5060574;28;19921;-89
2023/08/04 01:55:29;;;;;;;;;;;15.00;99.90;;;;;;5059970;28;19917;-88
2023/08/04 01:57:55;;;;;;;;;;;15.10;99.90;;;;;;5077186;28;19916;-88
2023/08/04 02:00:26;;;;;;;;;;;15.00;99.90;;;;;;5062193;28;19970;-89
2023/08/04 02:02:52;;;;;;;;;;;15.00;99.90;;;;;;5064332;28;20341;-89
2023/08/04 02:05:23;;;;;;;;;;;15.10;99.90;;;;;;5079669;28;20001;-89
2023/08/04 02:07:48;;;;;;;;;;;15.10;99.90;;;;;;5052933;28;20317;-89
2023/08/04 02:10:14;;;;;;;;;;;15.10;99.90;;;;;;5059520;28;19978;-89
2023/08/04 02:12:46;;;;;;;;;;;15.10;99.90;;;;;;5062683;28;20318;-88
2023/08/04 02:15:11;;;;;;;;;;;15.10;99.90;;;;;;5059375;28;19999;-88
2023/08/04 02:17:37;;;;;;;;;;;15.10;99.90;;;;;;5057783;28;20447;-88
2023/08/04 02:20:04;;;;;;;;;;;15.10;99.90;;;;;;5064855;28;19966;-87
2023/08/04 02:22:36;;;;;;;;;;;15.10;99.90;;;;;;5062056;28;19991;-89
2023/08/04 02:25:02;;;;;;;;;;;15.10;99.90;;;;;;5063609;28;20010;-88
2023/08/04 02:27:29;;;;;;;;;;;15.20;99.90;;;;;;5062788;28;19916;-89
2023/08/04 02:29:55;;;;;;;;;;;15.20;99.90;;;;;;5066544;28;19962;-89
2023/08/04 02:32:23;;;;;;;;;;;15.20;99.90;;;;;;5065652;28;19924;-89
2023/08/04 02:34:51;;;;;;;;;;;15.20;99.90;;;;;;5064390;28;19916;-88
2023/08/04 02:37:22;;;;;;;;;;;15.20;99.90;;;;;;5059799;28;20324;-88
2023/08/04 02:39:53;;;;;;;;;;;15.20;99.90;;;;;;5060674;28;19909;-89
2023/08/04 02:42:22;;;;;;;;;;;15.10;99.90;;;;;;5074325;28;19908;-89
2023/08/04 02:44:54;;;;;;;;;;;15.10;99.90;;;;;;5064544;28;19938;-89
2023/08/04 02:47:37;;;;;;;;;;;15.10;99.90;;;;;;5063604;28;19916;-89
2023/08/04 02:50:09;;;;;;;;;;;15.10;99.90;;;;;;5062433;28;19924;-89
2023/08/04 02:52:40;;;;;;;;;;;15.10;99.90;;;;;;5061365;28;20023;-89
2023/08/04 02:55:12;;;;;;;;;;;15.10;99.90;;;;;;5062608;28;19917;-89
2023/08/04 02:57:47;;;;;;;;;;;15.10;99.90;;;;;;5074091;28;20008;-90
2023/08/04 03:00:24;;;;;;;;;;;15.00;99.90;;;;;;5063308;28;19921;-89
2023/08/04 03:02:57;;;;;;;;;;;15.00;99.90;;;;;;5061971;28;19921;-90
2023/08/04 03:05:25;;;;;;;;;;;15.00;99.90;;;;;;5061733;28;20371;-88
2023/08/04 03:08:00;;;;;;;;;;;15.00;99.90;;;;;;5063601;28;19924;-89
2023/08/04 03:10:31;;;;;;;;;;;14.90;99.90;;;;;;5077029;28;20265;-89
2023/08/04 03:13:05;;;;;;;;;;;14.90;99.90;;;;;;5060512;28;19921;-88
2023/08/04 03:15:34;;;;;;;;;;;14.90;99.90;;;;;;5055291;28;20338;-89
2023/08/04 03:18:15;;;;;;;;;;;14.90;99.90;;;;;;5061327;28;19916;-88
2023/08/04 03:21:01;;;;;;;;;;;14.90;99.90;;;;;;5064306;28;19920;-88
2023/08/04 03:23:26;;;;;;;;;;;14.90;99.90;;;;;;5063075;28;19909;-88
2023/08/04 03:25:52;;;;;;;;;;;14.90;99.90;;;;;;5063184;28;20305;-87
2023/08/04 03:28:38;;;;;;;;;;;15.00;99.90;;;;;;5066169;28;19917;-89
2023/08/04 03:31:06;;;;;;;;;;;15.00;99.90;;;;;;5063256;28;19991;-88
2023/08/04 03:33:32;;;;;;;;;;;15.00;99.90;;;;;;5062791;28;20499;-89
2023/08/04 03:35:59;;;;;;;;;;;15.00;99.90;;;;;;5064321;28;19956;-88
2023/08/04 03:38:25;;;;;;;;;;;15.00;99.90;;;;;;5062843;28;19967;-87
2023/08/04 03:40:51;;;;;;;;;;;15.00;99.90;;;;;;5063967;28;19919;-89
2023/08/04 03:43:17;;;;;;;;;;;15.00;99.90;;;;;;5065873;28;19956;-88
2023/08/04 03:45:44;;;;;;;;;;;15.00;99.90;;;;;;5066490;28;19959;-87
2023/08/04 03:48:13;;;;;;;;;;;15.00;99.90;;;;;;5064958;28;19966;-88
2023/08/04 03:50:44;;;;;;;;;;;15.00;99.90;;;;;;5062579;28;20376;-89
2023/08/04 03:53:10;;;;;;;;;;;15.00;99.90;;;;;;5054162;28;20138;-89
2023/08/04 03:55:39;;;;;;;;;;;15.00;99.90;;;;;;5067870;28;19916;-88
2023/08/04 03:58:08;;;;;;;;;;;15.00;99.90;;;;;;5066355;28;20369;-89
2023/08/04 04:00:34;;;;;;;;;;;15.00;99.90;;;;;;5064121;28;19917;-89
2023/08/04 04:03:04;;;;;;;;;;;15.00;99.90;;;;;;5066222;28;19919;-89
2023/08/04 04:05:30;;;;;;;;;;;15.00;99.90;;;;;;5052303;28;19917;-88
2023/08/04 04:07:56;;;;;;;;;;;15.00;99.90;;;;;;5061952;28;19918;-89
2023/08/04 04:10:24;;;;;;;;;;;15.00;99.90;;;;;;5065400;28;19920;-87
2023/08/04 04:12:51;;;;;;;;;;;15.00;99.90;;;;;;5065509;28;19913;-89
2023/08/04 04:15:21;;;;;;;;;;;15.00;99.90;;;;;;5065910;28;19913;-88
2023/08/04 04:17:49;;;;;;;;;;;15.00;99.90;;;;;;5068611;28;19924;-89
2023/08/04 04:20:15;;;;;;;;;;;15.00;99.90;;;;;;5066609;28;19904;-88
2023/08/04 04:22:44;;;;;;;;;;;15.00;99.90;;;;;;5064395;28;19908;-89
2023/08/04 04:25:16;;;;;;;;;;;15.00;99.90;;;;;;5061696;28;19959;-89
2023/08/04 04:27:41;;;;;;;;;;;15.10;99.90;;;;;;5065387;28;19912;-89
2023/08/04 04:30:08;;;;;;;;;;;15.10;99.90;;;;;;5067153;28;19909;-89
2023/08/04 04:32:34;;;;;;;;;;;15.10;99.90;;;;;;5065634;28;20403;-88
2023/08/04 04:35:00;;;;;;;;;;;15.10;99.90;;;;;;5067571;28;19916;-88
2023/08/04 04:37:25;;;;;;;;;;;15.10;99.90;;;;;;5082696;28;20046;-88
2023/08/04 04:39:51;;;;;;;;;;;15.20;99.90;;;;;;5059904;28;20057;-89
2023/08/04 04:42:20;;;;;;;;;;;15.20;99.90;;;;;;5066077;28;19915;-89
2023/08/04 04:44:49;;;;;;;;;;;15.20;99.90;;;;;;5065319;28;19917;-88
2023/08/04 04:47:26;;;;;;;;;;;15.20;99.90;;;;;;5057515;28;19917;-88
2023/08/04 04:49:54;;;;;;;;;;;15.20;99.90;;;;;;5067285;28;19956;-89
2023/08/04 04:52:35;;;;;;;;;;;15.30;99.90;;;;;;5064946;28;19909;-88
2023/08/04 04:55:04;;;;;;;;;;;15.30;99.90;;;;;;5050530;28;19920;-88
2023/08/04 04:57:39;;;;;;;;;;;15.30;99.90;;;;;;5057568;28;19923;-87
2023/08/04 05:00:05;;;;;;;;;;;15.30;99.90;;;;;;5064058;28;20273;-87
2023/08/04 05:02:31;;;;;;;;;;;15.30;99.90;;;;;;5059037;28;19924;-87
2023/08/04 05:04:56;;;;;;;;;;;15.20;99.90;;;;;;5061895;28;19969;-87
2023/08/04 05:07:21;;;;;;;;;;;15.20;99.90;;;;;;5059396;28;20375;-87
2023/08/04 05:09:47;;;;;;;;;;;15.20;99.90;;;;;;5063582;28;19960;-87
2023/08/04 05:12:13;;;;;;;;;;;15.20;99.90;;;;;;5055739;28;19951;-86
2023/08/04 05:14:41;;;;;;;;;;;15.20;99.90;;;;;;5058080;28;20372;-85
2023/08/04 05:17:08;;;;;;;;;;;15.20;99.90;;;;;;5062206;28;19928;-86
2023/08/04 05:19:33;;;;;;;;;;;15.20;99.90;;;;;;5058741;28;19920;-86
2023/08/04 05:21:59;;;;;;;;;;;15.20;99.90;;;;;;5056251;28;19921;-87
2023/08/04 05:24:24;;;;;;;;;;;15.20;99.90;;;;;;5056352;28;19986;-86
2023/08/04 05:26:50;;;;;;;;;;;15.20;99.90;;;;;;5059365;28;19946;-88
2023/08/04 05:29:19;;;;;;;;;;;15.20;99.90;;;;;;5055861;28;19923;-86
2023/08/04 05:31:45;;;;;;;;;;;15.30;99.90;;;;;;5057286;28;19916;-86
2023/08/04 05:34:12;;;;;;;;;;;15.30;99.90;;;;;;5055222;28;19927;-87
2023/08/04 05:36:38;;;;;;;;;;;15.30;99.90;;;;;;5056949;28;19996;-87
2023/08/04 05:39:05;;;;;;;;;;;15.30;99.90;;;;;;5056081;28;19974;-86
2023/08/04 05:41:30;;;;;;;;;;;15.40;99.90;;;;;;5055361;28;19960;-86
2023/08/04 05:44:12;;;;;;;;;;;15.40;99.90;;;;;;5059686;28;20361;-87
2023/08/04 05:46:40;;;;;;;;;;;15.40;99.90;;;;;;5054966;28;19920;-87
2023/08/04 05:49:10;;;;;;;;;;;15.50;99.90;;;;;;5058159;28;19913;-87
2023/08/04 05:51:41;;;;;;;;;;;15.40;99.90;;;;;;5053821;28;19924;-88
2023/08/04 05:54:27;;;;;;;;;;;15.50;99.90;;;;;;5055802;28;19909;-87
2023/08/04 05:56:52;;;;;;;;;;;15.40;99.90;;;;;;5058275;28;19913;-87
2023/08/04 05:59:19;;;;;;;;;;;15.40;99.90;;;;;;5055342;28;19923;-87
2023/08/04 06:01:45;;;;;;;;;;;15.50;99.90;;;;;;5058527;28;19916;-88
2023/08/04 06:04:10;;;;;;;;;;;15.50;99.90;;;;;;5053406;28;19908;-86
2023/08/04 06:06:37;;;;;;;;;;;15.60;99.90;;;;;;5056453;28;19916;-87
2023/08/04 06:09:03;;;;;;;;;;;15.60;99.90;;;;;;5053398;28;19917;-88
2023/08/04 06:11:31;;;;;;;;;;;15.70;99.90;;;;;;5057105;28;20005;-87
2023/08/04 06:14:00;;;;;;;;;;;15.70;99.90;;;;;;5056472;28;19920;-88
2023/08/04 06:16:27;;;;;;;;;;;15.70;99.90;;;;;;5057149;28;19916;-87
2023/08/04 06:18:53;;;;;;;;;;;15.70;99.90;;;;;;5072058;28;20707;-87
2023/08/04 06:21:18;;;;;;;;;;;15.70;99.90;;;;;;5055102;28;19923;-87
2023/08/04 06:23:45;;;;;;;;;;;15.70;99.90;;;;;;5055984;28;19917;-86
2023/08/04 06:26:12;;;;;;;;;;;15.80;99.90;;;;;;5055198;28;19921;-87
2023/08/04 06:28:37;;;;;;;;;;;15.90;99.90;;;;;;5056247;28;19920;-88
2023/08/04 06:31:03;;;;;;;;;;;15.90;99.90;;;;;;5059147;28;20279;-87
2023/08/04 06:33:28;;;;;;;;;;;15.90;99.90;;;;;;5052651;28;20340;-88
2023/08/04 06:35:57;;;;;;;;;;;16.00;99.90;;;;;;5056014;28;19917;-87
2023/08/04 06:38:26;;;;;;;;;;;16.00;99.90;;;;;;5055367;28;19975;-88
2023/08/04 06:40:57;;;;;;;;;;;16.10;99.90;;;;;;5056396;28;19967;-87
2023/08/04 06:43:25;;;;;;;;;;;16.10;99.90;;;;;;5051678;28;19978;-86
2023/08/04 06:45:55;;;;;;;;;;;16.30;99.90;;;;;;5059830;28;19916;-87
2023/08/04 06:48:24;;;;;;;;;;;16.30;99.90;;;;;;5077139;28;19931;-87
2023/08/04 06:50:57;;;;;;;;;;;16.40;99.90;;;;;;5060089;28;20386;-86
2023/08/04 06:53:29;;;;;;;;;;;16.40;99.90;;;;;;5059547;28;19917;-86
2023/08/04 06:55:59;;;;;;;;;;;16.50;99.90;;;;;;5058328;28;19924;-88
2023/08/04 06:58:29;;;;;;;;;;;16.60;99.90;;;;;;5059063;28;19920;-87
2023/08/04 07:01:00;;;;;;;;;;;16.70;99.90;;;;;;5063844;28;20284;-87
2023/08/04 07:03:33;;;;;;;;;;;16.70;99.90;;;;;;5059784;28;19926;-87
2023/08/04 07:05:59;;;;;;;;;;;16.80;99.90;;;;;;5060119;28;19909;-87
2023/08/04 07:08:25;;;;;;;;;;;16.90;99.90;;;;;;5059000;28;19909;-88
2023/08/04 07:10:54;;;;;;;;;;;17.00;99.90;;;;;;5062473;28;19927;-87
2023/08/04 07:13:25;;;;;;;;;;;17.10;99.90;;;;;;5074761;28;19908;-87
2023/08/04 07:15:57;;;;;;;;;;;17.20;99.90;;;;;;5062554;28;19920;-88
2023/08/04 07:18:23;;;;;;;;;;;17.30;99.90;;;;;;5063251;28;19925;-88
2023/08/04 07:21:11;;;;;;;;;;;17.40;99.90;;;;;;5059425;28;20442;-89
2023/08/04 07:23:52;;;;;;;;;;;17.60;99.90;;;;;;5062831;28;19917;-88
2023/08/04 07:26:23;;;;;;;;;;;17.60;99.90;;;;;;5063207;28;19956;-88
2023/08/04 07:28:58;;;;;;;;;;;17.70;99.90;;;;;;5058365;28;19959;-89
2023/08/04 07:31:32;;;;;;;;;;;17.80;99.90;;;;;;5059838;28;19978;-87
2023/08/04 07:34:06;;;;;;;;;;;17.80;99.90;;;;;;5060795;28;19912;-88
2023/08/04 07:36:38;;;;;;;;;;;17.80;99.90;;;;;;5060516;28;19970;-88
2023/08/04 07:39:15;;;;;;;;;;;17.80;99.90;;;;;;5053520;28;19935;-88
2023/08/04 07:41:44;;;;;;;;;;;17.80;99.90;;;;;;5060486;28;19912;-87
2023/08/04 07:44:18;;;;;;;;;;;17.80;99.90;;;;;;5060679;28;19927;-88
2023/08/04 07:46:51;;;;;;;;;;;17.80;99.90;;;;;;5065255;28;19909;-89
2023/08/04 07:49:17;;;;;;;;;;;17.70;99.90;;;;;;5059929;28;20242;-88
2023/08/04 07:51:49;;;;;;;;;;;17.70;99.90;;;;;;5059985;28;20012;-89
2023/08/04 07:54:26;;;;;;;;;;;17.70;99.90;;;;;;5061669;28;19908;-88
2023/08/04 07:56:54;;;;;;;;;;;17.70;99.90;;;;;;5059830;28;19989;-87
2023/08/04 07:59:22;;;;;;;;;;;17.80;99.90;;;;;;5060565;28;19939;-89
2023/08/04 08:01:48;;;;;;;;;;;17.80;99.90;;;;;;5061039;28;19908;-88
2023/08/04 08:04:16;;;;;;;;;;;17.90;99.90;;;;;;5059017;28;19917;-88
2023/08/04 08:06:52;;;;;;;;;;;17.90;99.90;;;;;;5059083;28;19913;-87
2023/08/04 08:09:18;;;;;;;;;;;18.10;99.90;;;;;;5061025;28;20260;-90
2023/08/04 08:11:44;;;;;;;;;;;18.20;99.90;;;;;;5062862;28;19917;-89
2023/08/04 08:14:11;;;;;;;;;;;18.40;99.90;;;;;;5062555;28;19985;-89
2023/08/04 08:16:41;;;;;;;;;;;18.60;99.90;;;;;;5062006;28;19920;-89
2023/08/04 08:19:10;;;;;;;;;;;18.80;99.90;;;;;;5059449;28;19986;-89
2023/08/04 08:21:44;;;;;;;;;;;18.80;99.90;;;;;;5058063;28;19909;-89
2023/08/04 08:24:10;;;;;;;;;;;18.70;99.90;;;;;;5062095;28;19916;-88
2023/08/04 08:26:37;;;;;;;;;;;18.60;99.90;;;;;;5062432;28;19947;-87
2023/08/04 08:29:04;;;;;;;;;;;18.50;99.90;;;;;;5063373;28;19917;-89
2023/08/04 08:31:35;;;;;;;;;;;18.30;99.90;;;;;;5062498;28;19946;-88
2023/08/04 08:34:02;;;;;;;;;;;18.20;99.90;;;;;;5059200;28;20334;-88
2023/08/04 08:36:28;;;;;;;;;;;18.10;99.90;;;;;;5060057;28;19924;-89
2023/08/04 08:38:54;;;;;;;;;;;18.00;99.90;;;;;;5059736;28;20044;-89
2023/08/04 08:41:27;;;;;;;;;;;18.10;99.90;;;;;;5060619;28;19924;-88
2023/08/04 08:43:55;;;;;;;;;;;18.20;99.90;;;;;;5056632;28;19946;-89
2023/08/04 08:46:26;;;;;;;;;;;18.40;99.90;;;;;;5057123;28;20294;-89
2023/08/04 08:48:55;;;;;;;;;;;18.50;99.90;;;;;;5062446;28;19959;-89
2023/08/04 08:51:26;;;;;;;;;;;18.70;99.90;;;;;;5075376;28;19927;-88
2023/08/04 08:53:57;;;;;;;;;;;18.80;99.90;;;;;;5063060;28;19920;-91
2023/08/04 08:56:26;;;;;;;;;;;18.90;99.90;;;;;;5060813;28;19939;-89
2023/08/04 08:58:55;;;;;;;;;;;18.80;99.90;;;;;;5054374;28;19925;-89
2023/08/04 09:01:20;;;;;;;;;;;18.80;99.90;;;;;;5060819;28;19921;-88
2023/08/04 09:03:46;;;;;;;;;;;18.90;99.90;;;;;;5058119;28;19924;-89
2023/08/04 09:06:11;;;;;;;;;;;18.90;99.90;;;;;;5056904;28;19915;-88
2023/08/04 09:08:40;;;;;;;;;;;18.90;99.90;;;;;;5065098;28;19973;-92
2023/08/04 09:11:06;;;;;;;;;;;18.90;99.90;;;;;;5068069;28;20383;-93
2023/08/04 09:13:32;;;;;;;;;;;18.80;99.90;;;;;;5069193;28;19917;-93
2023/08/04 09:15:58;;;;;;;;;;;18.70;99.90;;;;;;5068054;28;19915;-93
2023/08/04 09:18:36;;;;;;;;;;;18.60;99.90;;;;;;5051111;28;19920;-93
2023/08/04 09:21:17;;;;;;;;;;;18.50;99.90;;;;;;5070181;28;19920;-93
2023/08/04 09:23:50;;;;;;;;;;;18.50;99.90;;;;;;5069525;28;20011;-92
2023/08/04 09:26:15;;;;;;;;;;;18.50;99.90;;;;;;5068200;28;20366;-91
2023/08/04 09:29:04;;;;;;;;;;;18.70;99.90;;;;;;5071173;28;19912;-92
2023/08/04 09:31:36;;;;;;;;;;;18.80;99.90;;;;;;5070450;28;19992;-93
2023/08/04 09:34:07;;;;;;;;;;;19.00;99.90;;;;;;5070092;28;19915;-91
2023/08/04 09:36:38;;;;;;;;;;;19.20;99.90;;;;;;5069281;28;20003;-92
2023/08/04 09:39:26;;;;;;;;;;;19.60;99.90;;;;;;5067100;28;19916;-93
2023/08/04 09:41:51;;;;;;;;;;;19.80;99.90;;;;;;5070706;28;19931;-92
2023/08/04 09:44:17;;;;;;;;;;;19.80;99.90;;;;;;5063735;28;19909;-92
2023/08/04 09:46:50;;;;;;;;;;;19.70;99.90;;;;;;5065638;28;19921;-93
2023/08/04 09:49:16;;;;;;;;;;;19.80;99.90;;;;;;5058583;28;19990;-91
2023/08/04 09:51:42;;;;;;;;;;;19.90;99.90;;;;;;5055437;28;19925;-92
2023/08/04 09:54:14;;;;;;;;;;;20.20;99.90;;;;;;5063975;28;19962;-91
2023/08/04 09:56:54;;;;;;;;;;;20.50;99.90;;;;;;5062294;28;19943;-92
2023/08/04 09:59:22;;;;;;;;;;;21.20;99.90;;;;;;5064937;28;19924;-92
2023/08/04 10:01:53;;;;;;;;;;;21.60;99.90;;;;;;5048131;28;19999;-91
2023/08/04 10:04:23;;;;;;;;;;;21.50;99.90;;;;;;5058311;28;19916;-91
2023/08/04 10:06:54;;;;;;;;;;;21.30;99.90;;;;;;5066812;28;19965;-92
2023/08/04 10:09:26;;;;;;;;;;;21.40;99.90;;;;;;5064897;28;20434;-92
2023/08/04 10:11:52;;;;;;;;;;;21.50;99.90;;;;;;5069446;28;19925;-92
2023/08/04 10:14:19;;;;;;;;;;;22.00;99.90;;;;;;5068817;28;19913;-91
2023/08/04 10:16:46;;;;;;;;;;;23.00;99.90;;;;;;5066002;28;19966;-92
2023/08/04 10:19:18;;;;;;;;;;;23.20;99.90;;;;;;5070182;28;19913;-91
2023/08/04 10:21:46;;;;;;;;;;;22.90;99.90;;;;;;5052007;28;19924;-90
2023/08/04 10:24:19;;;;;;;;;;;22.70;99.90;;;;;;5063015;28;20414;-91
2023/08/04 10:26:50;;;;;;;;;;;22.50;99.90;;;;;;5067101;28;20325;-92
2023/08/04 10:29:18;;;;;;;;;;;22.40;99.90;;;;;;5063728;28;19963;-91
2023/08/04 10:31:55;;;;;;;;;;;22.30;99.90;;;;;;5065888;28;19908;-90
2023/08/04 10:34:25;;;;;;;;;;;22.30;99.90;;;;;;5060427;28;19921;-91
2023/08/04 10:37:17;;;;;;;;;;;22.30;99.90;;;;;;5063541;28;19929;-92
2023/08/04 10:39:44;;;;;;;;;;;22.20;99.90;;;;;;5063637;28;19909;-91
2023/08/04 10:42:19;;;;;;;;;;;22.00;99.90;;;;;;5065585;28;20003;-91
2023/08/04 10:44:49;;;;;;;;;;;22.10;99.90;;;;;;5065875;28;19932;-90
2023/08/04 10:47:27;;;;;;;;;;;22.30;99.90;;;;;;5065731;28;19916;-90
2023/08/04 10:49:59;;;;;;;;;;;22.70;99.90;;;;;;5066008;28;19909;-92
2023/08/04 10:52:25;;;;;;;;;;;22.90;99.90;;;;;;5061775;28;20012;-91
2023/08/04 10:54:52;;;;;;;;;;;23.00;99.90;;;;;;5054187;28;19924;-91
2023/08/04 10:57:35;;;;;;;;;;;23.10;99.90;;;;;;5061604;28;19931;-91
2023/08/04 11:00:02;;;;;;;;;;;23.40;99.90;;;;;;5046934;28;19923;-92
2023/08/04 11:02:29;;;;;;;;;;;24.30;99.90;;;;;;5062527;28;22515;-91
2023/08/04 11:04:56;;;;;;;;;;;24.80;99.90;;;;;;5061617;28;19986;-92
2023/08/04 11:07:24;;;;;;;;;;;24.50;99.90;;;;;;5067167;28;19913;-90
2023/08/04 11:09:50;;;;;;;;;;;23.90;99.90;;;;;;5064542;28;19943;-91
2023/08/04 11:12:16;;;;;;;;;;;23.40;99.90;;;;;;5060930;28;19909;-92
2023/08/04 11:14:44;;;;;;;;;;;23.30;99.90;;;;;;5065994;28;19913;-93
2023/08/04 11:17:14;;;;;;;;;;;23.60;99.90;;;;;;5066634;28;19917;-93
2023/08/04 11:19:42;;;;;;;;;;;23.70;99.90;;;;;;5063163;28;19977;-92
2023/08/04 11:22:12;;;;;;;;;;;23.50;99.90;;;;;;5068684;28;19912;-92
2023/08/04 11:24:37;;;;;;;;;;;23.60;99.90;;;;;;5066859;28;19908;-92
2023/08/04 11:27:08;;;;;;;;;;;24.20;99.90;;;;;;5059937;28;19917;-93
2023/08/04 11:29:41;;;;;;;;;;;25.00;99.90;;;;;;5067397;28;19934;-91
2023/08/04 11:32:32;;;;;;;;;;;25.70;99.90;;;;;;5083278;28;19956;-93
2023/08/04 11:35:02;;;;;;;;;;;25.70;99.90;;;;;;5065066;28;20351;-92
2023/08/04 11:37:34;;;;;;;;;;;24.90;99.90;;;;;;5066392;28;20391;-94
2023/08/04 11:40:08;;;;;;;;;;;24.30;99.90;;;;;;5058316;28;20161;-93
2023/08/04 11:43:03;;;;;;;;;;;23.90;99.90;;;;;;5061074;28;19927;-93
2023/08/04 11:45:33;;;;;;;;;;;23.60;99.90;;;;;;5073680;28;19917;-92
2023/08/04 11:48:04;;;;;;;;;;;23.10;99.90;;;;;;5061940;28;19921;-91
2023/08/04 11:50:30;;;;;;;;;;;22.90;99.90;;;;;;5063447;28;20230;-94
2023/08/04 11:52:56;;;;;;;;;;;23.50;99.90;;;;;;5063571;28;19923;-94
2023/08/04 11:55:22;;;;;;;;;;;24.40;99.90;;;;;;5059263;28;19917;-93
2023/08/04 11:57:58;;;;;;;;;;;24.50;99.90;;;;;;5048215;28;19933;-94
2023/08/04 12:00:49;;;;;;;;;;;24.00;99.90;;;;;;5059918;28;19973;-92
2023/08/04 12:03:32;;;;;;;;;;;23.80;99.90;;;;;;5059502;28;19927;-92
2023/08/04 12:05:58;;;;;;;;;;;24.50;99.90;;;;;;5063497;28;20430;-91
2023/08/04 12:08:33;;;;;;;;;;;25.00;99.90;;;;;;5068051;28;19991;-92
2023/08/04 12:11:02;;;;;;;;;;;25.60;99.90;;;;;;5070113;28;19982;-92
2023/08/04 12:13:33;;;;;;;;;;;25.60;99.90;;;;;;5069224;28;19958;-93
2023/08/04 12:16:02;;;;;;;;;;;25.00;99.90;;;;;;5066746;28;19912;-94
2023/08/04 12:18:28;;;;;;;;;;;24.50;99.90;;;;;;5071621;28;19916;-93
2023/08/04 12:20:56;;;;;;;;;;;24.20;99.90;;;;;;5069560;28;19970;-91
2023/08/04 12:23:26;;;;;;;;;;;24.50;99.90;;;;;;5050004;28;19963;-92
2023/08/04 12:25:52;;;;;;;;;;;25.00;99.90;;;;;;5070428;28;19938;-93
2023/08/04 12:28:17;;;;;;;;;;;25.60;99.90;;;;;;5071329;28;19908;-93
2023/08/04 12:30:50;;;;;;;;;;;25.90;99.90;;;;;;5072561;28;19920;-93
2023/08/04 12:33:15;;;;;;;;;;;26.40;99.90;;;;;;5068857;28;19932;-92
2023/08/04 12:35:41;;;;;;;;;;;26.10;99.90;;;;;;5069953;28;19924;-93
2023/08/04 12:38:06;;;;;;;;;;;25.80;99.90;;;;;;5070331;28;19909;-92
2023/08/04 12:40:38;;;;;;;;;;;25.50;99.90;;;;;;5065893;28;19963;-91
2023/08/04 12:43:04;;;;;;;;;;;25.20;99.90;;;;;;5066808;28;19916;-94
2023/08/04 12:45:29;;;;;;;;;;;24.80;99.90;;;;;;5063492;28;19973;-91
2023/08/04 12:47:55;;;;;;;;;;;24.70;99.90;;;;;;5068982;28;19952;-91
2023/08/04 12:50:20;;;;;;;;;;;25.00;99.90;;;;;;5065606;28;19913;-92
2023/08/04 12:52:47;;;;;;;;;;;25.80;99.90;;;;;;5067934;28;20514;-91
2023/08/04 12:55:13;;;;;;;;;;;26.40;99.90;;;;;;5069162;28;19920;-92
2023/08/04 12:57:43;;;;;;;;;;;26.60;99.90;;;;;;5060616;28;19913;-92
2023/08/04 13:00:12;;;;;;;;;;;26.60;99.90;;;;;;5059406;28;19916;-92
2023/08/04 13:02:48;;;;;;;;;;;26.40;99.90;;;;;;5048403;28;19920;-92
2023/08/04 13:05:15;;;;;;;;;;;26.30;99.90;;;;;;5062872;28;19987;-92
2023/08/04 13:07:42;;;;;;;;;;;26.40;99.90;;;;;;5069250;28;19969;-92
2023/08/04 13:10:10;;;;;;;;;;;26.60;99.90;;;;;;5070901;28;20381;-92
2023/08/04 13:12:39;;;;;;;;;;;26.40;99.90;;;;;;5068181;28;19905;-90
2023/08/04 13:15:10;;;;;;;;;;;25.40;99.90;;;;;;5069083;28;19909;-91
2023/08/04 13:17:36;;;;;;;;;;;24.50;99.90;;;;;;5052406;28;19917;-91
2023/08/04 13:20:05;;;;;;;;;;;24.00;99.90;;;;;;5069426;28;19925;-91
2023/08/04 13:22:30;;;;;;;;;;;24.30;99.90;;;;;;5065700;28;19939;-89
2023/08/04 13:24:59;;;;;;;;;;;25.30;99.90;;;;;;5062887;28;20257;-91
2023/08/04 13:27:32;;;;;;;;;;;26.10;99.90;;;;;;5067716;28;20249;-92
2023/08/04 13:30:03;;;;;;;;;;;26.90;99.90;;;;;;5095425;28;19913;-91
2023/08/04 13:32:28;;;;;;;;;;;27.20;99.90;;;;;;5092568;28;19983;-90
2023/08/04 13:34:57;;;;;;;;;;;26.70;99.90;;;;;;5059436;28;19952;-91
2023/08/04 13:37:45;;;;;;;;;;;26.00;99.90;;;;;;5092022;28;19912;-90
2023/08/04 13:40:12;;;;;;;;;;;25.60;99.90;;;;;;5067730;28;19962;-91
2023/08/04 13:42:43;;;;;;;;;;;25.60;99.90;;;;;;5067755;28;20000;-91
2023/08/04 13:45:11;;;;;;;;;;;25.20;99.90;;;;;;5067724;28;19954;-91
2023/08/04 13:47:38;;;;;;;;;;;24.80;99.90;;;;;;5063839;28;19925;-90
2023/08/04 13:50:09;;;;;;;;;;;24.50;99.90;;;;;;5066289;28;19917;-91
2023/08/04 13:52:38;;;;;;;;;;;24.30;99.90;;;;;;5062582;28;19924;-90
2023/08/04 13:55:09;;;;;;;;;;;24.10;99.90;;;;;;5060533;28;19909;-90
2023/08/04 13:57:35;;;;;;;;;;;24.00;99.90;;;;;;5058133;28;20291;-91
2023/08/04 14:00:01;;;;;;;;;;;23.80;99.90;;;;;;5060147;28;20125;-91
2023/08/04 14:02:29;;;;;;;;;;;24.50;99.90;;;;;;5057294;28;19921;-92
2023/08/04 14:04:55;;;;;;;;;;;25.50;99.90;;;;;;5058534;28;19912;-92
2023/08/04 14:07:23;;;;;;;;;;;26.20;99.90;;;;;;5065110;28;19932;-92
2023/08/04 14:09:49;;;;;;;;;;;26.80;99.90;;;;;;5066557;28;19919;-91
2023/08/04 14:12:20;;;;;;;;;;;26.80;99.90;;;;;;5065897;28;19916;-91
2023/08/04 14:14:46;;;;;;;;;;;26.50;99.90;;;;;;5069208;28;19920;-91
2023/08/04 14:17:14;;;;;;;;;;;26.20;99.90;;;;;;5065662;28;20336;-89
2023/08/04 14:19:43;;;;;;;;;;;25.70;99.90;;;;;;5056706;28;19925;-91
2023/08/04 14:22:09;;;;;;;;;;;25.20;99.90;;;;;;5063371;28;19919;-90
2023/08/04 14:24:34;;;;;;;;;;;24.80;99.90;;;;;;5069445;28;20340;-92
2023/08/04 14:27:02;;;;;;;;;;;24.40;99.90;;;;;;5064669;28;19931;-90
2023/08/04 14:29:29;;;;;;;;;;;24.30;99.90;;;;;;5062173;28;19920;-91